createdAt,value
2019-03-13T00:00:53.695Z,6.00
2019-03-13T00:03:32.104Z,6.00
2019-03-13T00:06:07.543Z,6.10
2019-03-13T00:08:43.190Z,6.10
2019-03-13T00:11:18.745Z,6.40
2019-03-13T00:13:55.103Z,6.90
2019-03-13T00:16:31.577Z,7.70
2019-03-13T00:19:05.373Z,8.40
2019-03-13T00:21:40.201Z,8.80
2019-03-13T00:24:24.692Z,8.90
2019-03-13T00:27:00.922Z,9.20
2019-03-13T00:29:36.702Z,9.30
2019-03-13T00:32:14.264Z,9.50
2019-03-13T00:34:49.297Z,9.70
2019-03-13T00:37:24.330Z,9.70
2019-03-13T00:40:04.775Z,9.80
2019-03-13T00:42:43.284Z,9.80
2019-03-13T00:45:18.706Z,9.70
2019-03-13T00:48:06.173Z,9.40
2019-03-13T00:50:42.716Z,9.00
2019-03-13T00:53:17.299Z,8.70
2019-03-13T00:55:53.942Z,8.40
2019-03-13T00:58:27.128Z,8.00
2019-03-13T01:01:40.046Z,7.60
2019-03-13T01:04:38.710Z,7.40
2019-03-13T01:07:13.708Z,7.20
2019-03-13T01:09:48.737Z,7.00
2019-03-13T01:12:25.704Z,6.90
2019-03-13T01:15:04.730Z,6.90
2019-03-13T01:17:39.321Z,6.70
2019-03-13T01:20:15.182Z,6.60
2019-03-13T01:22:51.240Z,6.40
2019-03-13T01:25:28.722Z,6.10
2019-03-13T01:28:05.200Z,6.00
2019-03-13T01:30:59.718Z,5.80
2019-03-13T01:33:34.312Z,5.70
2019-03-13T01:36:16.135Z,5.60
2019-03-13T01:38:51.344Z,5.60
2019-03-13T01:41:28.222Z,5.60
2019-03-13T01:44:06.134Z,5.60
2019-03-13T01:46:47.512Z,5.60
2019-03-13T01:49:26.225Z,5.60
2019-03-13T01:52:10.163Z,5.60
2019-03-13T01:54:44.722Z,5.60
2019-03-13T02:00:38.722Z,5.70
2019-03-13T02:06:54.724Z,5.70
2019-03-13T02:13:19.732Z,5.70
2019-03-13T02:15:56.285Z,5.70
2019-03-13T02:18:31.760Z,5.70
2019-03-13T02:21:09.743Z,5.80
2019-03-13T02:23:48.771Z,5.80
2019-03-13T02:26:24.742Z,5.90
2019-03-13T02:28:59.739Z,5.90
2019-03-13T02:31:34.746Z,5.90
2019-03-13T02:34:16.878Z,5.80
2019-03-13T02:36:53.354Z,5.80
2019-03-13T02:39:30.241Z,5.80
2019-03-13T02:42:06.272Z,5.70
2019-03-13T02:44:42.965Z,5.70
2019-03-13T02:47:19.104Z,5.70
2019-03-13T02:49:53.237Z,5.60
2019-03-13T02:52:29.326Z,5.60
2019-03-13T02:55:03.744Z,5.70
2019-03-13T02:57:44.280Z,5.60
2019-03-13T03:00:25.454Z,5.70
2019-03-13T03:03:01.750Z,5.60
2019-03-13T03:05:35.772Z,5.50
2019-03-13T03:08:10.340Z,5.50
2019-03-13T03:10:46.192Z,5.50
2019-03-13T03:13:22.762Z,5.40
2019-03-13T03:15:57.761Z,5.40
2019-03-13T03:18:33.786Z,5.40
2019-03-13T03:21:16.417Z,5.40
2019-03-13T03:23:54.681Z,5.40
2019-03-13T03:26:30.700Z,5.30
2019-03-13T03:29:05.967Z,5.30
2019-03-13T03:31:41.769Z,5.30
2019-03-13T03:34:29.801Z,5.20
2019-03-13T03:37:04.181Z,5.30
2019-03-13T03:39:38.189Z,5.30
2019-03-13T03:42:13.220Z,5.20
2019-03-13T03:44:50.774Z,5.20
2019-03-13T03:47:27.189Z,5.20
2019-03-13T03:50:04.475Z,5.20
2019-03-13T03:52:41.759Z,5.20
2019-03-13T03:55:28.262Z,5.20
2019-03-13T03:58:10.477Z,5.20
2019-03-13T04:04:18.784Z,5.10
2019-03-13T04:10:37.359Z,5.10
2019-03-13T04:13:15.687Z,5.10
2019-03-13T04:15:52.787Z,5.20
2019-03-13T04:18:29.461Z,5.20
2019-03-13T04:21:06.305Z,5.10
2019-03-13T04:23:52.393Z,5.10
2019-03-13T04:26:35.426Z,5.10
2019-03-13T04:29:13.317Z,5.10
2019-03-13T04:31:55.726Z,5.10
2019-03-13T04:34:36.088Z,5.10
2019-03-13T04:37:47.379Z,5.10
2019-03-13T04:40:39.398Z,5.10
2019-03-13T04:43:30.410Z,5.10
2019-03-13T04:46:07.278Z,5.10
2019-03-13T05:01:54.273Z,5.10
2019-03-13T05:08:09.262Z,5.10
2019-03-13T05:14:28.140Z,5.00
2019-03-13T05:20:32.277Z,4.90
2019-03-13T05:26:36.411Z,4.80
2019-03-13T05:29:14.308Z,4.80
2019-03-13T05:31:49.138Z,4.70
2019-03-13T05:38:05.361Z,4.70
2019-03-13T05:40:48.581Z,4.60
2019-03-13T05:43:35.494Z,4.60
2019-03-13T05:49:53.350Z,4.60
2019-03-13T05:52:30.647Z,4.60
2019-03-13T05:55:07.829Z,4.60
2019-03-13T06:01:14.318Z,4.70
2019-03-13T06:04:05.824Z,4.70
2019-03-13T06:06:48.556Z,4.70
2019-03-13T06:13:00.418Z,4.80
2019-03-13T06:22:36.358Z,4.90
2019-03-13T06:28:53.391Z,4.90
2019-03-13T06:31:31.829Z,5.00
2019-03-13T06:34:07.556Z,5.10
2019-03-13T06:36:43.410Z,5.00
2019-03-13T06:39:26.418Z,5.10
2019-03-13T06:42:09.040Z,5.20
2019-03-13T06:44:47.352Z,5.20
2019-03-13T06:47:25.324Z,5.20
2019-03-13T06:50:02.545Z,5.20
2019-03-13T06:52:41.311Z,5.20
2019-03-13T06:58:54.111Z,5.20
2019-03-13T07:01:46.958Z,5.00
2019-03-13T07:08:06.317Z,5.00
2019-03-13T07:14:33.103Z,5.00
2019-03-13T07:17:22.269Z,5.00
2019-03-13T07:20:08.985Z,5.10
2019-03-13T07:22:56.326Z,5.10
2019-03-13T07:25:51.818Z,5.00
2019-03-13T07:28:45.890Z,5.10
2019-03-13T07:31:51.029Z,5.30
2019-03-13T07:34:43.620Z,5.40
2019-03-13T07:47:23.348Z,5.80
2019-03-13T07:53:58.953Z,5.70
2019-03-13T07:56:49.756Z,5.80
2019-03-13T07:59:31.750Z,5.80
2019-03-13T08:05:41.619Z,5.90
2019-03-13T08:08:42.869Z,6.00
2019-03-13T08:11:17.093Z,6.00
2019-03-13T08:14:05.848Z,6.00
2019-03-13T08:20:08.950Z,6.10
2019-03-13T08:23:13.972Z,6.00
2019-03-13T08:26:16.976Z,6.10
2019-03-13T08:32:51.349Z,6.00
2019-03-13T08:39:24.032Z,6.00
2019-03-13T08:45:23.852Z,5.80
2019-03-13T08:51:25.941Z,6.00
2019-03-13T09:04:28.275Z,5.90
2019-03-13T09:07:27.856Z,5.90
2019-03-13T09:10:22.563Z,5.90
2019-03-13T09:13:22.224Z,6.00
2019-03-13T09:16:28.920Z,6.20
2019-03-13T09:19:20.794Z,6.40
2019-03-13T09:22:10.981Z,6.60
2019-03-13T09:25:13.871Z,6.70
2019-03-13T09:31:48.432Z,6.80
2019-03-13T09:38:27.373Z,6.70
2019-03-13T09:41:22.993Z,6.80
2019-03-13T09:44:13.296Z,6.90
2019-03-13T09:47:07.373Z,6.90
2019-03-13T09:49:55.798Z,6.90
2019-03-13T09:52:49.266Z,6.80
2019-03-13T09:55:49.929Z,6.90
2019-03-13T09:58:43.979Z,6.80
2019-03-13T10:01:39.393Z,6.80
2019-03-13T10:04:31.375Z,6.90
2019-03-13T10:07:19.377Z,7.00
2019-03-13T10:10:23.296Z,7.20
2019-03-13T10:13:28.939Z,7.40
2019-03-13T10:16:08.867Z,7.50
2019-03-13T10:19:03.427Z,7.70
2019-03-13T10:21:56.010Z,7.80
2019-03-13T10:25:08.423Z,7.60
2019-03-13T10:28:06.910Z,7.60
2019-03-13T10:34:41.963Z,7.90
2019-03-13T10:37:34.811Z,8.00
2019-03-13T10:40:40.150Z,7.70
2019-03-13T10:43:31.400Z,7.60
2019-03-13T10:46:33.066Z,7.70
2019-03-13T10:49:36.734Z,8.00
2019-03-13T10:52:38.312Z,8.00
2019-03-13T10:55:46.676Z,7.80
2019-03-13T10:58:34.726Z,7.90
2019-03-13T11:04:50.443Z,7.90
2019-03-13T11:10:59.914Z,7.60
2019-03-13T11:13:42.410Z,7.10
2019-03-13T11:16:35.678Z,6.90
2019-03-13T11:23:10.320Z,7.00
2019-03-13T11:26:09.620Z,6.80
2019-03-13T11:29:02.582Z,7.00
2019-03-13T11:31:51.125Z,7.00
2019-03-13T11:34:47.917Z,6.90
2019-03-13T11:37:38.965Z,6.80
2019-03-13T11:44:12.502Z,5.90
2019-03-13T11:47:10.471Z,5.90
2019-03-13T11:50:01.925Z,5.50
2019-03-13T11:53:24.437Z,5.10
2019-03-13T11:59:33.692Z,5.30
2019-03-13T12:06:08.137Z,5.60
2019-03-13T12:12:30.355Z,5.70
2019-03-13T12:15:38.944Z,5.70
2019-03-13T12:18:39.346Z,6.00
2019-03-13T12:31:52.546Z,6.00
2019-03-13T12:34:48.457Z,6.00
2019-03-13T12:41:21.484Z,6.10
2019-03-13T12:47:34.405Z,6.60
2019-03-13T12:50:38.522Z,6.70
2019-03-13T12:53:18.473Z,6.80
2019-03-13T12:56:29.881Z,6.90
2019-03-13T12:59:15.923Z,6.90
2019-03-13T13:02:10.340Z,6.80
2019-03-13T13:05:05.236Z,7.00
2019-03-13T13:07:58.495Z,7.20
2019-03-13T13:10:55.662Z,7.30
2019-03-13T13:13:57.522Z,7.30
2019-03-13T13:16:46.446Z,7.10
2019-03-13T13:19:21.503Z,7.20
2019-03-13T13:22:02.485Z,7.40
2019-03-13T13:28:13.368Z,7.50
2019-03-13T13:30:49.425Z,7.50
2019-03-13T13:33:25.948Z,7.50
2019-03-13T13:36:03.385Z,7.50
2019-03-13T13:38:40.280Z,7.70
2019-03-13T13:41:16.820Z,7.80
2019-03-13T13:43:51.358Z,7.90
2019-03-13T13:46:33.167Z,7.80
2019-03-13T13:49:10.647Z,7.80
2019-03-13T13:51:46.490Z,7.80
2019-03-13T13:54:27.941Z,7.80
2019-03-13T13:57:06.942Z,7.80
2019-03-13T13:59:47.261Z,7.80
2019-03-13T14:02:21.584Z,7.80
2019-03-13T14:04:56.943Z,7.80
2019-03-13T14:07:30.617Z,7.50
2019-03-13T14:10:05.941Z,7.60
2019-03-13T14:12:44.068Z,7.40
2019-03-13T14:15:20.952Z,7.30
2019-03-13T14:17:59.995Z,6.30
2019-03-13T14:20:33.366Z,5.70
2019-03-13T14:23:14.937Z,5.50
2019-03-13T14:25:49.374Z,5.50
2019-03-13T14:28:29.521Z,5.60
2019-03-13T14:31:07.625Z,5.70
2019-03-13T14:33:45.976Z,5.70
2019-03-13T14:36:22.954Z,5.80
2019-03-13T14:42:40.956Z,5.90
2019-03-13T14:45:26.559Z,6.00
2019-03-13T14:48:04.669Z,6.00
2019-03-13T14:50:47.280Z,6.10
2019-03-13T14:53:24.133Z,6.30
2019-03-13T14:56:00.625Z,6.40
2019-03-13T14:58:36.476Z,6.50
2019-03-13T15:01:14.167Z,6.50
2019-03-13T15:03:54.873Z,6.60
2019-03-13T15:06:30.376Z,6.60
2019-03-13T15:09:09.507Z,6.60
2019-03-13T15:11:44.982Z,6.60
2019-03-13T15:14:26.035Z,6.70
2019-03-13T15:17:01.574Z,6.70
2019-03-13T15:19:37.832Z,6.80
2019-03-13T15:22:13.482Z,6.70
2019-03-13T15:24:59.575Z,6.70
2019-03-13T15:27:34.608Z,6.80
2019-03-13T15:30:14.222Z,6.90
2019-03-13T15:32:47.990Z,6.90
2019-03-13T15:35:25.451Z,6.90
2019-03-13T15:38:01.498Z,6.90
2019-03-13T15:40:41.448Z,7.10
2019-03-13T15:43:19.556Z,7.10
2019-03-13T15:45:58.996Z,7.10
2019-03-13T15:48:32.488Z,7.10
2019-03-13T15:51:14.384Z,7.10
2019-03-13T15:53:51.704Z,7.10
2019-03-13T15:56:31.924Z,7.10
2019-03-13T15:59:11.056Z,7.10
2019-03-13T16:01:47.114Z,7.00
2019-03-13T16:04:22.768Z,7.00
2019-03-13T16:06:58.075Z,6.90
2019-03-13T16:09:34.065Z,6.80
2019-03-13T16:12:11.553Z,6.80
2019-03-13T16:14:47.605Z,6.70
2019-03-13T16:17:23.086Z,6.70
2019-03-13T16:19:57.103Z,6.80
2019-03-13T16:22:34.065Z,6.80
2019-03-13T16:25:11.071Z,6.70
2019-03-13T16:27:45.066Z,6.70
2019-03-13T16:30:23.544Z,6.70
2019-03-13T16:33:00.006Z,6.60
2019-03-13T16:35:35.744Z,6.70
2019-03-13T16:38:10.278Z,6.70
2019-03-13T16:40:48.018Z,6.60
2019-03-13T16:43:32.021Z,6.60
2019-03-13T16:46:03.881Z,6.60
2019-03-13T16:48:42.429Z,6.60
2019-03-13T16:51:18.454Z,6.60
2019-03-13T16:53:54.951Z,6.60
2019-03-13T16:56:37.020Z,6.70
2019-03-13T16:59:23.141Z,6.70
2019-03-13T17:01:59.995Z,6.60
2019-03-13T17:04:36.362Z,6.60
2019-03-13T17:07:13.939Z,6.50
2019-03-13T17:09:51.863Z,6.50
2019-03-13T17:12:27.704Z,6.50
2019-03-13T17:15:03.962Z,6.50
2019-03-13T17:17:48.532Z,6.40
2019-03-13T17:20:34.203Z,6.40
2019-03-13T17:26:56.340Z,6.30
2019-03-13T17:33:00.985Z,6.20
2019-03-13T17:35:38.437Z,6.10
2019-03-13T17:38:16.812Z,6.20
2019-03-13T17:40:54.501Z,6.10
2019-03-13T17:43:38.970Z,6.00
2019-03-13T17:46:13.580Z,6.00
2019-03-13T17:48:55.004Z,6.00
2019-03-13T17:51:30.042Z,6.00
2019-03-13T17:54:06.670Z,5.90
2019-03-13T18:02:51.981Z,5.80
2019-03-13T18:05:31.938Z,5.70
2019-03-13T18:08:14.652Z,5.60
2019-03-13T18:14:39.363Z,5.70
2019-03-13T18:17:16.708Z,5.60
2019-03-13T18:19:54.390Z,5.60
2019-03-13T18:22:29.493Z,5.60
2019-03-13T18:25:04.817Z,5.50
2019-03-13T18:27:42.393Z,5.50
2019-03-13T18:30:26.980Z,5.50
2019-03-13T18:33:11.230Z,5.50
2019-03-13T18:35:55.268Z,5.50
2019-03-13T18:38:32.141Z,5.40
2019-03-13T18:41:15.172Z,5.40
2019-03-13T18:43:56.344Z,5.30
2019-03-13T18:46:36.294Z,5.30
2019-03-13T18:49:14.743Z,5.30
2019-03-13T18:51:51.861Z,5.30
2019-03-13T18:54:31.626Z,5.40
2019-03-13T18:57:06.261Z,5.40
2019-03-13T18:59:48.659Z,5.50
2019-03-13T19:02:33.326Z,5.60
2019-03-13T19:05:13.272Z,5.60
2019-03-13T19:07:56.287Z,5.70
2019-03-13T19:10:39.924Z,5.70
2019-03-13T19:13:24.999Z,5.70
2019-03-13T19:16:06.588Z,5.70
2019-03-13T19:18:45.919Z,5.80
2019-03-13T19:21:22.387Z,5.80
2019-03-13T19:24:02.752Z,5.80
2019-03-13T19:26:41.086Z,5.80
2019-03-13T19:29:16.703Z,5.80
2019-03-13T19:31:54.602Z,5.90
2019-03-13T19:34:29.435Z,5.90
2019-03-13T19:37:10.604Z,5.90
2019-03-13T19:39:47.683Z,5.90
2019-03-13T19:42:36.858Z,5.90
2019-03-13T19:45:16.795Z,5.90
2019-03-13T19:47:54.490Z,5.90
2019-03-13T19:50:33.852Z,5.90
2019-03-13T19:53:10.850Z,6.00
2019-03-13T19:55:48.953Z,6.00
2019-03-13T19:58:26.300Z,6.00
2019-03-13T20:01:02.359Z,6.00
2019-03-13T20:03:54.362Z,5.90
2019-03-13T20:06:26.735Z,5.90
2019-03-13T20:09:03.135Z,5.90
2019-03-13T20:11:37.851Z,5.90
2019-03-13T20:14:13.640Z,6.00
2019-03-13T20:17:10.455Z,6.00
2019-03-13T20:19:44.764Z,5.90
2019-03-13T20:22:22.570Z,5.90
2019-03-13T20:24:56.593Z,5.90
2019-03-13T20:27:33.778Z,5.90
2019-03-13T20:30:10.096Z,5.80
2019-03-13T20:32:46.382Z,5.90
2019-03-13T20:35:22.439Z,5.90
2019-03-13T20:38:00.867Z,5.80
2019-03-13T20:40:34.761Z,5.80
2019-03-13T20:43:09.793Z,5.80
2019-03-13T20:45:45.912Z,5.70
2019-03-13T20:48:22.524Z,5.80
2019-03-13T20:50:58.580Z,5.80
2019-03-13T20:53:37.176Z,5.80
2019-03-13T20:56:16.219Z,5.90
2019-03-13T20:58:57.817Z,6.00
2019-03-13T21:01:35.984Z,6.00
2019-03-13T21:04:12.012Z,6.00
2019-03-13T21:06:52.196Z,5.90
2019-03-13T21:09:28.595Z,5.90
2019-03-13T21:12:05.991Z,5.90
2019-03-13T21:14:45.133Z,5.90
2019-03-13T21:17:24.891Z,5.90
2019-03-13T21:20:00.610Z,5.90
2019-03-13T21:22:38.521Z,5.90
2019-03-13T21:25:15.699Z,5.90
2019-03-13T21:27:51.646Z,5.90
2019-03-13T21:30:30.687Z,5.90
2019-03-13T21:33:05.611Z,5.80
2019-03-13T21:35:48.628Z,5.80
2019-03-13T21:38:22.435Z,5.80
2019-03-13T21:41:05.660Z,5.60
2019-03-13T21:43:50.858Z,5.60
2019-03-13T21:46:23.710Z,5.60
2019-03-13T21:49:07.737Z,5.40
2019-03-13T21:51:45.642Z,5.40
2019-03-13T21:54:21.449Z,5.20
2019-03-13T21:56:59.000Z,5.20
2019-03-13T21:59:38.966Z,5.20
2019-03-13T22:02:32.302Z,5.10
2019-03-13T22:05:00.683Z,5.00
2019-03-13T22:07:38.022Z,5.00
2019-03-13T22:10:13.009Z,4.90
2019-03-13T22:12:49.886Z,4.90
2019-03-13T22:15:25.954Z,4.90
2019-03-13T22:18:01.188Z,4.90
2019-03-13T22:20:36.476Z,4.90
2019-03-13T22:23:18.541Z,4.90
2019-03-13T22:25:53.484Z,4.80
2019-03-13T22:28:31.967Z,4.90
2019-03-13T22:31:10.736Z,4.90
2019-03-13T22:33:47.152Z,4.90
2019-03-13T22:36:25.053Z,4.80
2019-03-13T22:39:01.317Z,4.80
2019-03-13T22:41:36.962Z,4.80
2019-03-13T22:44:13.020Z,4.80
2019-03-13T22:50:21.046Z,4.70
2019-03-13T22:53:00.994Z,4.70
2019-03-13T22:55:36.028Z,4.60
2019-03-13T22:58:13.114Z,4.60
2019-03-13T23:01:18.493Z,4.60
2019-03-13T23:03:55.946Z,4.60
2019-03-13T23:06:34.503Z,4.60
2019-03-13T23:09:09.904Z,4.60
2019-03-13T23:11:48.229Z,4.50
2019-03-13T23:14:23.497Z,4.50
2019-03-13T23:16:59.920Z,4.50
2019-03-13T23:19:37.000Z,4.50
2019-03-13T23:22:12.134Z,4.50
2019-03-13T23:24:47.535Z,4.50
2019-03-13T23:27:22.105Z,4.50
2019-03-13T23:30:01.853Z,4.40
2019-03-13T23:32:37.528Z,4.30
2019-03-13T23:35:15.200Z,4.30
2019-03-13T23:37:52.067Z,4.30
2019-03-13T23:40:28.124Z,4.40
2019-03-13T23:43:09.097Z,4.40
2019-03-13T23:45:46.178Z,4.50
2019-03-13T23:48:24.098Z,4.50
2019-03-13T23:50:59.932Z,4.50
2019-03-13T23:53:37.928Z,4.50
2019-03-13T23:56:13.517Z,4.50
2019-03-13T23:58:48.921Z,4.40
